<?xml version="1.0" encoding="UTF-8" standalone="no" ?>
<gpx xmlns="http://www.topografix.com/GPX/1/1" xmlns:xsi="http://www.w3.org/2001/XMLSchema-instance" xsi:schemaLocation="http://www.topografix.com/GPX/1/1 http://www.topografix.com/GPX/1/1/gpx.xsd" version="1.1" creator="VisuGPX - https://www.visugpx.com">
  <metadata>
    <name>Malveaux Tremontkopf</name>
    <desc><![CDATA[Ascension du Tremontkopf depuis Malvaux]]></desc>
  </metadata>
  <trk>
    <name><![CDATA[2013-11-05-01]]></name>
    <trkseg>
      <trkpt lat="47.77729" lon="6.83542">
        <ele>535.4</ele>
        <time>2013-11-05T08:07:14Z</time>
      </trkpt>
      <trkpt lat="47.77718" lon="6.83571">
        <ele>540.7</ele>
        <time>2013-11-05T08:07:49Z</time>
      </trkpt>
      <trkpt lat="47.77707" lon="6.836">
        <ele>539.7</ele>
        <time>2013-11-05T08:09:00Z</time>
      </trkpt>
      <trkpt lat="47.77705" lon="6.83631">
        <ele>541.2</ele>
        <time>2013-11-05T08:09:20Z</time>
      </trkpt>
      <trkpt lat="47.77701" lon="6.83664">
        <ele>540.7</ele>
        <time>2013-11-05T08:09:40Z</time>
      </trkpt>
      <trkpt lat="47.77706" lon="6.83696">
        <ele>538.7</ele>
        <time>2013-11-05T08:10:00Z</time>
      </trkpt>
      <trkpt lat="47.77704" lon="6.83729">
        <ele>537.9</ele>
        <time>2013-11-05T08:10:35Z</time>
      </trkpt>
      <trkpt lat="47.77688" lon="6.83752">
        <ele>534.7</ele>
        <time>2013-11-05T08:10:49Z</time>
      </trkpt>
      <trkpt lat="47.77677" lon="6.83781">
        <ele>541.2</ele>
        <time>2013-11-05T08:11:17Z</time>
      </trkpt>
      <trkpt lat="47.77663" lon="6.83807">
        <ele>543</ele>
        <time>2013-11-05T08:12:04Z</time>
      </trkpt>
      <trkpt lat="47.77668" lon="6.83839">
        <ele>547.5</ele>
        <time>2013-11-05T08:12:29Z</time>
      </trkpt>
      <trkpt lat="47.7767" lon="6.83872">
        <ele>553.2</ele>
        <time>2013-11-05T08:12:45Z</time>
      </trkpt>
      <trkpt lat="47.77678" lon="6.83901">
        <ele>556.7</ele>
        <time>2013-11-05T08:12:59Z</time>
      </trkpt>
      <trkpt lat="47.77684" lon="6.83933">
        <ele>562.5</ele>
        <time>2013-11-05T08:13:17Z</time>
      </trkpt>
      <trkpt lat="47.77692" lon="6.83964">
        <ele>568.7</ele>
        <time>2013-11-05T08:13:37Z</time>
      </trkpt>
      <trkpt lat="47.77704" lon="6.8399">
        <ele>577.7</ele>
        <time>2013-11-05T08:13:57Z</time>
      </trkpt>
      <trkpt lat="47.77709" lon="6.84022">
        <ele>584</ele>
        <time>2013-11-05T08:14:20Z</time>
      </trkpt>
      <trkpt lat="47.77721" lon="6.84049">
        <ele>590.7</ele>
        <time>2013-11-05T08:14:38Z</time>
      </trkpt>
      <trkpt lat="47.77727" lon="6.84081">
        <ele>594.5</ele>
        <time>2013-11-05T08:15:05Z</time>
      </trkpt>
      <trkpt lat="47.77747" lon="6.84069">
        <ele>596.2</ele>
        <time>2013-11-05T08:15:36Z</time>
      </trkpt>
      <trkpt lat="47.77769" lon="6.84067">
        <ele>594.7</ele>
        <time>2013-11-05T08:16:12Z</time>
      </trkpt>
      <trkpt lat="47.77784" lon="6.8409">
        <ele>592.2</ele>
        <time>2013-11-05T08:16:31Z</time>
      </trkpt>
      <trkpt lat="47.77797" lon="6.84117">
        <ele>593.5</ele>
        <time>2013-11-05T08:16:51Z</time>
      </trkpt>
      <trkpt lat="47.77794" lon="6.84149">
        <ele>600.5</ele>
        <time>2013-11-05T08:17:26Z</time>
      </trkpt>
      <trkpt lat="47.77795" lon="6.84182">
        <ele>601.2</ele>
        <time>2013-11-05T08:17:44Z</time>
      </trkpt>
      <trkpt lat="47.77805" lon="6.84211">
        <ele>602</ele>
        <time>2013-11-05T08:18:11Z</time>
      </trkpt>
      <trkpt lat="47.77813" lon="6.84242">
        <ele>604</ele>
        <time>2013-11-05T08:18:34Z</time>
      </trkpt>
      <trkpt lat="47.77818" lon="6.84274">
        <ele>605.2</ele>
        <time>2013-11-05T08:18:59Z</time>
      </trkpt>
      <trkpt lat="47.77823" lon="6.84306">
        <ele>609</ele>
        <time>2013-11-05T08:19:19Z</time>
      </trkpt>
      <trkpt lat="47.77836" lon="6.84332">
        <ele>611.4</ele>
        <time>2013-11-05T08:19:33Z</time>
      </trkpt>
      <trkpt lat="47.77842" lon="6.84364">
        <ele>612.5</ele>
        <time>2013-11-05T08:19:52Z</time>
      </trkpt>
      <trkpt lat="47.77847" lon="6.84396">
        <ele>613.4</ele>
        <time>2013-11-05T08:20:12Z</time>
      </trkpt>
      <trkpt lat="47.77861" lon="6.84419">
        <ele>614</ele>
        <time>2013-11-05T08:20:29Z</time>
      </trkpt>
      <trkpt lat="47.77878" lon="6.8444">
        <ele>615</ele>
        <time>2013-11-05T08:20:41Z</time>
      </trkpt>
      <trkpt lat="47.77888" lon="6.84468">
        <ele>616.2</ele>
        <time>2013-11-05T08:21:00Z</time>
      </trkpt>
      <trkpt lat="47.77893" lon="6.84498">
        <ele>618</ele>
        <time>2013-11-05T08:21:11Z</time>
      </trkpt>
      <trkpt lat="47.77897" lon="6.8453">
        <ele>621.2</ele>
        <time>2013-11-05T08:21:21Z</time>
      </trkpt>
      <trkpt lat="47.77896" lon="6.84564">
        <ele>623.7</ele>
        <time>2013-11-05T08:21:42Z</time>
      </trkpt>
      <trkpt lat="47.77896" lon="6.84595">
        <ele>624.9</ele>
        <time>2013-11-05T08:21:59Z</time>
      </trkpt>
      <trkpt lat="47.77898" lon="6.84627">
        <ele>626.2</ele>
        <time>2013-11-05T08:22:07Z</time>
      </trkpt>
      <trkpt lat="47.77906" lon="6.84657">
        <ele>628</ele>
        <time>2013-11-05T08:22:22Z</time>
      </trkpt>
      <trkpt lat="47.77913" lon="6.84689">
        <ele>630.2</ele>
        <time>2013-11-05T08:22:37Z</time>
      </trkpt>
      <trkpt lat="47.77924" lon="6.84717">
        <ele>634.5</ele>
        <time>2013-11-05T08:22:56Z</time>
      </trkpt>
      <trkpt lat="47.77928" lon="6.84748">
        <ele>639.2</ele>
        <time>2013-11-05T08:23:10Z</time>
      </trkpt>
      <trkpt lat="47.77932" lon="6.8478">
        <ele>650.5</ele>
        <time>2013-11-05T08:23:26Z</time>
      </trkpt>
      <trkpt lat="47.7794" lon="6.8481">
        <ele>658.2</ele>
        <time>2013-11-05T08:23:46Z</time>
      </trkpt>
      <trkpt lat="47.77942" lon="6.84842">
        <ele>659.5</ele>
        <time>2013-11-05T08:24:00Z</time>
      </trkpt>
      <trkpt lat="47.77951" lon="6.84871">
        <ele>659.2</ele>
        <time>2013-11-05T08:24:20Z</time>
      </trkpt>
      <trkpt lat="47.7795" lon="6.84903">
        <ele>659.7</ele>
        <time>2013-11-05T08:24:37Z</time>
      </trkpt>
      <trkpt lat="47.77948" lon="6.84935">
        <ele>664.4</ele>
        <time>2013-11-05T08:25:00Z</time>
      </trkpt>
      <trkpt lat="47.77946" lon="6.84968">
        <ele>669.9</ele>
        <time>2013-11-05T08:25:12Z</time>
      </trkpt>
      <trkpt lat="47.77949" lon="6.85">
        <ele>675.2</ele>
        <time>2013-11-05T08:25:34Z</time>
      </trkpt>
      <trkpt lat="47.77947" lon="6.85031">
        <ele>679.4</ele>
        <time>2013-11-05T08:25:51Z</time>
      </trkpt>
      <trkpt lat="47.77946" lon="6.85063">
        <ele>685.7</ele>
        <time>2013-11-05T08:26:08Z</time>
      </trkpt>
      <trkpt lat="47.77939" lon="6.85095">
        <ele>687.5</ele>
        <time>2013-11-05T08:26:27Z</time>
      </trkpt>
      <trkpt lat="47.77936" lon="6.85127">
        <ele>688.9</ele>
        <time>2013-11-05T08:26:46Z</time>
      </trkpt>
      <trkpt lat="47.77937" lon="6.85159">
        <ele>690.7</ele>
        <time>2013-11-05T08:27:04Z</time>
      </trkpt>
      <trkpt lat="47.77936" lon="6.85192">
        <ele>691</ele>
        <time>2013-11-05T08:27:21Z</time>
      </trkpt>
      <trkpt lat="47.77937" lon="6.85225">
        <ele>695.7</ele>
        <time>2013-11-05T08:27:47Z</time>
      </trkpt>
      <trkpt lat="47.77935" lon="6.85257">
        <ele>698.2</ele>
        <time>2013-11-05T08:28:11Z</time>
      </trkpt>
      <trkpt lat="47.77931" lon="6.85288">
        <ele>698.2</ele>
        <time>2013-11-05T08:28:35Z</time>
      </trkpt>
      <trkpt lat="47.77936" lon="6.8532">
        <ele>698.4</ele>
        <time>2013-11-05T08:28:54Z</time>
      </trkpt>
      <trkpt lat="47.77949" lon="6.85345">
        <ele>701</ele>
        <time>2013-11-05T08:29:14Z</time>
      </trkpt>
      <trkpt lat="47.77962" lon="6.85371">
        <ele>703.4</ele>
        <time>2013-11-05T08:29:37Z</time>
      </trkpt>
      <trkpt lat="47.77975" lon="6.85397">
        <ele>705</ele>
        <time>2013-11-05T08:29:59Z</time>
      </trkpt>
      <trkpt lat="47.77985" lon="6.85426">
        <ele>706.2</ele>
        <time>2013-11-05T08:30:26Z</time>
      </trkpt>
      <trkpt lat="47.77996" lon="6.85454">
        <ele>708.9</ele>
        <time>2013-11-05T08:31:00Z</time>
      </trkpt>
      <trkpt lat="47.78007" lon="6.85481">
        <ele>709.7</ele>
        <time>2013-11-05T08:31:22Z</time>
      </trkpt>
      <trkpt lat="47.78009" lon="6.85512">
        <ele>711.5</ele>
        <time>2013-11-05T08:31:37Z</time>
      </trkpt>
      <trkpt lat="47.78016" lon="6.85543">
        <ele>711.7</ele>
        <time>2013-11-05T08:31:49Z</time>
      </trkpt>
      <trkpt lat="47.78033" lon="6.85563">
        <ele>711.7</ele>
        <time>2013-11-05T08:32:13Z</time>
      </trkpt>
      <trkpt lat="47.78043" lon="6.85593">
        <ele>711.5</ele>
        <time>2013-11-05T08:32:46Z</time>
      </trkpt>
      <trkpt lat="47.78041" lon="6.85626">
        <ele>712</ele>
        <time>2013-11-05T08:33:25Z</time>
      </trkpt>
      <trkpt lat="47.7804" lon="6.85659">
        <ele>714.9</ele>
        <time>2013-11-05T08:33:53Z</time>
      </trkpt>
      <trkpt lat="47.78043" lon="6.8569">
        <ele>715</ele>
        <time>2013-11-05T08:34:13Z</time>
      </trkpt>
      <trkpt lat="47.7805" lon="6.85721">
        <ele>715.2</ele>
        <time>2013-11-05T08:34:30Z</time>
      </trkpt>
      <trkpt lat="47.78058" lon="6.85751">
        <ele>714.5</ele>
        <time>2013-11-05T08:34:55Z</time>
      </trkpt>
      <trkpt lat="47.78071" lon="6.85778">
        <ele>713.9</ele>
        <time>2013-11-05T08:35:11Z</time>
      </trkpt>
      <trkpt lat="47.78081" lon="6.85806">
        <ele>713.2</ele>
        <time>2013-11-05T08:35:30Z</time>
      </trkpt>
      <trkpt lat="47.78084" lon="6.85839">
        <ele>713.2</ele>
        <time>2013-11-05T08:36:02Z</time>
      </trkpt>
      <trkpt lat="47.78097" lon="6.85867">
        <ele>712.7</ele>
        <time>2013-11-05T08:37:24Z</time>
      </trkpt>
      <trkpt lat="47.781" lon="6.85899">
        <ele>715.9</ele>
        <time>2013-11-05T08:37:55Z</time>
      </trkpt>
      <trkpt lat="47.78101" lon="6.85931">
        <ele>716.4</ele>
        <time>2013-11-05T08:38:21Z</time>
      </trkpt>
      <trkpt lat="47.78111" lon="6.8596">
        <ele>716.5</ele>
        <time>2013-11-05T08:39:14Z</time>
      </trkpt>
      <trkpt lat="47.781" lon="6.85989">
        <ele>717.5</ele>
        <time>2013-11-05T08:40:04Z</time>
      </trkpt>
      <trkpt lat="47.7808" lon="6.86001">
        <ele>727.2</ele>
        <time>2013-11-05T08:40:48Z</time>
      </trkpt>
      <trkpt lat="47.78082" lon="6.86033">
        <ele>727.5</ele>
        <time>2013-11-05T08:41:54Z</time>
      </trkpt>
      <trkpt lat="47.78074" lon="6.86063">
        <ele>725.7</ele>
        <time>2013-11-05T08:42:27Z</time>
      </trkpt>
      <trkpt lat="47.78074" lon="6.86096">
        <ele>728</ele>
        <time>2013-11-05T08:43:02Z</time>
      </trkpt>
      <trkpt lat="47.78089" lon="6.86119">
        <ele>729.4</ele>
        <time>2013-11-05T08:43:22Z</time>
      </trkpt>
      <trkpt lat="47.78101" lon="6.86147">
        <ele>729.5</ele>
        <time>2013-11-05T08:43:54Z</time>
      </trkpt>
      <trkpt lat="47.78117" lon="6.86168">
        <ele>731.7</ele>
        <time>2013-11-05T08:46:19Z</time>
      </trkpt>
      <trkpt lat="47.78139" lon="6.86173">
        <ele>732.2</ele>
        <time>2013-11-05T08:46:36Z</time>
      </trkpt>
      <trkpt lat="47.78157" lon="6.86192">
        <ele>733.2</ele>
        <time>2013-11-05T08:48:10Z</time>
      </trkpt>
      <trkpt lat="47.78174" lon="6.86213">
        <ele>734</ele>
        <time>2013-11-05T08:48:55Z</time>
      </trkpt>
      <trkpt lat="47.78153" lon="6.862">
        <ele>739.7</ele>
        <time>2013-11-05T08:49:47Z</time>
      </trkpt>
      <trkpt lat="47.78154" lon="6.86268">
        <ele>740.4</ele>
        <time>2013-11-05T08:51:31Z</time>
      </trkpt>
      <trkpt lat="47.78163" lon="6.86373">
        <ele>742.7</ele>
        <time>2013-11-05T08:52:22Z</time>
      </trkpt>
      <trkpt lat="47.7817" lon="6.86404">
        <ele>744.9</ele>
        <time>2013-11-05T08:52:34Z</time>
      </trkpt>
      <trkpt lat="47.78168" lon="6.86435">
        <ele>748.4</ele>
        <time>2013-11-05T08:52:46Z</time>
      </trkpt>
      <trkpt lat="47.78175" lon="6.86466">
        <ele>752.9</ele>
        <time>2013-11-05T08:52:57Z</time>
      </trkpt>
      <trkpt lat="47.78192" lon="6.86486">
        <ele>756.5</ele>
        <time>2013-11-05T08:53:04Z</time>
      </trkpt>
      <trkpt lat="47.78209" lon="6.86509">
        <ele>758.4</ele>
        <time>2013-11-05T08:53:10Z</time>
      </trkpt>
      <trkpt lat="47.78223" lon="6.86532">
        <ele>759.7</ele>
        <time>2013-11-05T08:53:19Z</time>
      </trkpt>
      <trkpt lat="47.78236" lon="6.86556">
        <ele>760.4</ele>
        <time>2013-11-05T08:53:29Z</time>
      </trkpt>
      <trkpt lat="47.78244" lon="6.86581">
        <ele>760.9</ele>
        <time>2013-11-05T08:53:35Z</time>
      </trkpt>
      <trkpt lat="47.78252" lon="6.86608">
        <ele>761.4</ele>
        <time>2013-11-05T08:53:40Z</time>
      </trkpt>
      <trkpt lat="47.78262" lon="6.86637">
        <ele>762</ele>
        <time>2013-11-05T08:53:46Z</time>
      </trkpt>
      <trkpt lat="47.78272" lon="6.86665">
        <ele>762.5</ele>
        <time>2013-11-05T08:53:55Z</time>
      </trkpt>
      <trkpt lat="47.78278" lon="6.86694">
        <ele>764.2</ele>
        <time>2013-11-05T08:54:06Z</time>
      </trkpt>
      <trkpt lat="47.78284" lon="6.86725">
        <ele>765.2</ele>
        <time>2013-11-05T08:54:16Z</time>
      </trkpt>
      <trkpt lat="47.78293" lon="6.86755">
        <ele>766</ele>
        <time>2013-11-05T08:54:29Z</time>
      </trkpt>
      <trkpt lat="47.78302" lon="6.86783">
        <ele>766.5</ele>
        <time>2013-11-05T08:54:41Z</time>
      </trkpt>
      <trkpt lat="47.7832" lon="6.86801">
        <ele>767.2</ele>
        <time>2013-11-05T08:54:58Z</time>
      </trkpt>
      <trkpt lat="47.78318" lon="6.86768">
        <ele>780.2</ele>
        <time>2013-11-05T08:55:56Z</time>
      </trkpt>
      <trkpt lat="47.78298" lon="6.86756">
        <ele>790</ele>
        <time>2013-11-05T08:56:01Z</time>
      </trkpt>
      <trkpt lat="47.78278" lon="6.86744">
        <ele>799.5</ele>
        <time>2013-11-05T08:56:06Z</time>
      </trkpt>
      <trkpt lat="47.78258" lon="6.86734">
        <ele>808.2</ele>
        <time>2013-11-05T08:56:11Z</time>
      </trkpt>
      <trkpt lat="47.7824" lon="6.86723">
        <ele>816.7</ele>
        <time>2013-11-05T08:56:16Z</time>
      </trkpt>
      <trkpt lat="47.78231" lon="6.86698">
        <ele>818.2</ele>
        <time>2013-11-05T08:56:23Z</time>
      </trkpt>
      <trkpt lat="47.78226" lon="6.86666">
        <ele>819.7</ele>
        <time>2013-11-05T08:56:29Z</time>
      </trkpt>
      <trkpt lat="47.78205" lon="6.86657">
        <ele>856.4</ele>
        <time>2013-11-05T08:56:53Z</time>
      </trkpt>
      <trkpt lat="47.78204" lon="6.86689">
        <ele>869.4</ele>
        <time>2013-11-05T08:57:21Z</time>
      </trkpt>
      <trkpt lat="47.78218" lon="6.86711">
        <ele>864.5</ele>
        <time>2013-11-05T08:57:32Z</time>
      </trkpt>
      <trkpt lat="47.78232" lon="6.86734">
        <ele>860.9</ele>
        <time>2013-11-05T08:57:45Z</time>
      </trkpt>
      <trkpt lat="47.78237" lon="6.86763">
        <ele>855.2</ele>
        <time>2013-11-05T08:57:56Z</time>
      </trkpt>
      <trkpt lat="47.78242" lon="6.86795">
        <ele>851</ele>
        <time>2013-11-05T08:58:04Z</time>
      </trkpt>
      <trkpt lat="47.78252" lon="6.86823">
        <ele>847.2</ele>
        <time>2013-11-05T08:58:13Z</time>
      </trkpt>
      <trkpt lat="47.78257" lon="6.86855">
        <ele>845</ele>
        <time>2013-11-05T08:58:32Z</time>
      </trkpt>
      <trkpt lat="47.7825" lon="6.86885">
        <ele>845</ele>
        <time>2013-11-05T08:58:49Z</time>
      </trkpt>
      <trkpt lat="47.78246" lon="6.86918">
        <ele>845.4</ele>
        <time>2013-11-05T08:59:11Z</time>
      </trkpt>
      <trkpt lat="47.78251" lon="6.86949">
        <ele>846.2</ele>
        <time>2013-11-05T09:00:22Z</time>
      </trkpt>
      <trkpt lat="47.78247" lon="6.86982">
        <ele>846</ele>
        <time>2013-11-05T09:00:48Z</time>
      </trkpt>
      <trkpt lat="47.78238" lon="6.87012">
        <ele>846.2</ele>
        <time>2013-11-05T09:01:01Z</time>
      </trkpt>
      <trkpt lat="47.7823" lon="6.87043">
        <ele>846.5</ele>
        <time>2013-11-05T09:01:21Z</time>
      </trkpt>
      <trkpt lat="47.78228" lon="6.87075">
        <ele>847.2</ele>
        <time>2013-11-05T09:01:36Z</time>
      </trkpt>
      <trkpt lat="47.78232" lon="6.87107">
        <ele>847.9</ele>
        <time>2013-11-05T09:02:00Z</time>
      </trkpt>
      <trkpt lat="47.78241" lon="6.87137">
        <ele>848.5</ele>
        <time>2013-11-05T09:02:21Z</time>
      </trkpt>
      <trkpt lat="47.78252" lon="6.87166">
        <ele>849.5</ele>
        <time>2013-11-05T09:02:42Z</time>
      </trkpt>
      <trkpt lat="47.78231" lon="6.87173">
        <ele>863</ele>
        <time>2013-11-05T09:03:46Z</time>
      </trkpt>
      <trkpt lat="47.78208" lon="6.87171">
        <ele>869.2</ele>
        <time>2013-11-05T09:04:37Z</time>
      </trkpt>
      <trkpt lat="47.78231" lon="6.87167">
        <ele>876.7</ele>
        <time>2013-11-05T09:06:06Z</time>
      </trkpt>
      <trkpt lat="47.7825" lon="6.87152">
        <ele>902.2</ele>
        <time>2013-11-05T09:06:47Z</time>
      </trkpt>
      <trkpt lat="47.78249" lon="6.87123">
        <ele>907.7</ele>
        <time>2013-11-05T09:06:58Z</time>
      </trkpt>
      <trkpt lat="47.78249" lon="6.87091">
        <ele>916.5</ele>
        <time>2013-11-05T09:07:11Z</time>
      </trkpt>
      <trkpt lat="47.78266" lon="6.87069">
        <ele>923.4</ele>
        <time>2013-11-05T09:07:35Z</time>
      </trkpt>
      <trkpt lat="47.78273" lon="6.87039">
        <ele>924.7</ele>
        <time>2013-11-05T09:07:56Z</time>
      </trkpt>
      <trkpt lat="47.78271" lon="6.87006">
        <ele>936</ele>
        <time>2013-11-05T09:08:19Z</time>
      </trkpt>
      <trkpt lat="47.7828" lon="6.86977">
        <ele>944</ele>
        <time>2013-11-05T09:08:40Z</time>
      </trkpt>
      <trkpt lat="47.78292" lon="6.8695">
        <ele>949.7</ele>
        <time>2013-11-05T09:08:56Z</time>
      </trkpt>
      <trkpt lat="47.78297" lon="6.8692">
        <ele>957.9</ele>
        <time>2013-11-05T09:09:09Z</time>
      </trkpt>
      <trkpt lat="47.78308" lon="6.86892">
        <ele>965.2</ele>
        <time>2013-11-05T09:09:21Z</time>
      </trkpt>
      <trkpt lat="47.78327" lon="6.86876">
        <ele>971.5</ele>
        <time>2013-11-05T09:09:33Z</time>
      </trkpt>
      <trkpt lat="47.78337" lon="6.86847">
        <ele>978.7</ele>
        <time>2013-11-05T09:10:03Z</time>
      </trkpt>
      <trkpt lat="47.78338" lon="6.86815">
        <ele>986.4</ele>
        <time>2013-11-05T09:10:39Z</time>
      </trkpt>
      <trkpt lat="47.78347" lon="6.86785">
        <ele>992.5</ele>
        <time>2013-11-05T09:11:07Z</time>
      </trkpt>
      <trkpt lat="47.78352" lon="6.86754">
        <ele>995.5</ele>
        <time>2013-11-05T09:11:25Z</time>
      </trkpt>
      <trkpt lat="47.78362" lon="6.86726">
        <ele>999.5</ele>
        <time>2013-11-05T09:11:53Z</time>
      </trkpt>
      <trkpt lat="47.78381" lon="6.86709">
        <ele>1003.5</ele>
        <time>2013-11-05T09:12:21Z</time>
      </trkpt>
      <trkpt lat="47.78396" lon="6.86684">
        <ele>1007.2</ele>
        <time>2013-11-05T09:12:36Z</time>
      </trkpt>
      <trkpt lat="47.78413" lon="6.86666">
        <ele>1011</ele>
        <time>2013-11-05T09:13:00Z</time>
      </trkpt>
      <trkpt lat="47.78417" lon="6.86633">
        <ele>1014.9</ele>
        <time>2013-11-05T09:13:31Z</time>
      </trkpt>
      <trkpt lat="47.78429" lon="6.86606">
        <ele>1015</ele>
        <time>2013-11-05T09:13:54Z</time>
      </trkpt>
      <trkpt lat="47.78441" lon="6.86579">
        <ele>1022</ele>
        <time>2013-11-05T09:14:25Z</time>
      </trkpt>
      <trkpt lat="47.78462" lon="6.86574">
        <ele>1025.6</ele>
        <time>2013-11-05T09:14:37Z</time>
      </trkpt>
      <trkpt lat="47.78484" lon="6.86571">
        <ele>1027.5</ele>
        <time>2013-11-05T09:14:50Z</time>
      </trkpt>
      <trkpt lat="47.78504" lon="6.86558">
        <ele>1046.6</ele>
        <time>2013-11-05T09:15:26Z</time>
      </trkpt>
      <trkpt lat="47.78484" lon="6.86543">
        <ele>1064.6</ele>
        <time>2013-11-05T09:17:20Z</time>
      </trkpt>
      <trkpt lat="47.78467" lon="6.86523">
        <ele>1067.3</ele>
        <time>2013-11-05T09:17:50Z</time>
      </trkpt>
      <trkpt lat="47.78449" lon="6.86504">
        <ele>1067.1</ele>
        <time>2013-11-05T09:18:09Z</time>
      </trkpt>
      <trkpt lat="47.78439" lon="6.86475">
        <ele>1071.5</ele>
        <time>2013-11-05T09:18:37Z</time>
      </trkpt>
      <trkpt lat="47.78441" lon="6.86443">
        <ele>1074.3</ele>
        <time>2013-11-05T09:18:54Z</time>
      </trkpt>
      <trkpt lat="47.7844" lon="6.8641">
        <ele>1075.9</ele>
        <time>2013-11-05T09:19:11Z</time>
      </trkpt>
      <trkpt lat="47.7844" lon="6.86379">
        <ele>1076.9</ele>
        <time>2013-11-05T09:19:27Z</time>
      </trkpt>
      <trkpt lat="47.78437" lon="6.86348">
        <ele>1077.3</ele>
        <time>2013-11-05T09:19:38Z</time>
      </trkpt>
      <trkpt lat="47.78435" lon="6.86315">
        <ele>1077.6</ele>
        <time>2013-11-05T09:19:50Z</time>
      </trkpt>
      <trkpt lat="47.78433" lon="6.86282">
        <ele>1078</ele>
        <time>2013-11-05T09:20:02Z</time>
      </trkpt>
      <trkpt lat="47.78431" lon="6.8625">
        <ele>1078.4</ele>
        <time>2013-11-05T09:20:14Z</time>
      </trkpt>
      <trkpt lat="47.7843" lon="6.86217">
        <ele>1078.5</ele>
        <time>2013-11-05T09:20:27Z</time>
      </trkpt>
      <trkpt lat="47.7843" lon="6.86185">
        <ele>1078.6</ele>
        <time>2013-11-05T09:20:40Z</time>
      </trkpt>
      <trkpt lat="47.78434" lon="6.86153">
        <ele>1079</ele>
        <time>2013-11-05T09:21:06Z</time>
      </trkpt>
      <trkpt lat="47.78429" lon="6.86121">
        <ele>1079.5</ele>
        <time>2013-11-05T09:21:21Z</time>
      </trkpt>
      <trkpt lat="47.78428" lon="6.86088">
        <ele>1079</ele>
        <time>2013-11-05T09:21:53Z</time>
      </trkpt>
      <trkpt lat="47.7844" lon="6.86062">
        <ele>1075.6</ele>
        <time>2013-11-05T09:23:05Z</time>
      </trkpt>
      <trkpt lat="47.78439" lon="6.86029">
        <ele>1074.1</ele>
        <time>2013-11-05T09:23:22Z</time>
      </trkpt>
      <trkpt lat="47.78444" lon="6.85998">
        <ele>1071.4</ele>
        <time>2013-11-05T09:23:39Z</time>
      </trkpt>
      <trkpt lat="47.78453" lon="6.85969">
        <ele>1070.5</ele>
        <time>2013-11-05T09:23:53Z</time>
      </trkpt>
      <trkpt lat="47.78456" lon="6.85937">
        <ele>1070.4</ele>
        <time>2013-11-05T09:24:07Z</time>
      </trkpt>
      <trkpt lat="47.78459" lon="6.85904">
        <ele>1071.1</ele>
        <time>2013-11-05T09:24:29Z</time>
      </trkpt>
      <trkpt lat="47.78477" lon="6.85884">
        <ele>1069.4</ele>
        <time>2013-11-05T09:24:57Z</time>
      </trkpt>
      <trkpt lat="47.78484" lon="6.85853">
        <ele>1064.3</ele>
        <time>2013-11-05T09:25:34Z</time>
      </trkpt>
      <trkpt lat="47.78464" lon="6.85845">
        <ele>1061.1</ele>
        <time>2013-11-05T09:25:54Z</time>
      </trkpt>
      <trkpt lat="47.78444" lon="6.8583">
        <ele>1061.1</ele>
        <time>2013-11-05T09:26:09Z</time>
      </trkpt>
      <trkpt lat="47.78422" lon="6.85821">
        <ele>1062.5</ele>
        <time>2013-11-05T09:26:47Z</time>
      </trkpt>
      <trkpt lat="47.78409" lon="6.85846">
        <ele>1060</ele>
        <time>2013-11-05T09:26:59Z</time>
      </trkpt>
      <trkpt lat="47.78396" lon="6.85872">
        <ele>1057.6</ele>
        <time>2013-11-05T09:27:09Z</time>
      </trkpt>
      <trkpt lat="47.7838" lon="6.85891">
        <ele>1057.3</ele>
        <time>2013-11-05T09:27:18Z</time>
      </trkpt>
      <trkpt lat="47.78361" lon="6.85904">
        <ele>1057</ele>
        <time>2013-11-05T09:27:29Z</time>
      </trkpt>
      <trkpt lat="47.78342" lon="6.8592">
        <ele>1056.9</ele>
        <time>2013-11-05T09:27:39Z</time>
      </trkpt>
      <trkpt lat="47.78325" lon="6.85934">
        <ele>1057.8</ele>
        <time>2013-11-05T09:27:49Z</time>
      </trkpt>
      <trkpt lat="47.78308" lon="6.85956">
        <ele>1057</ele>
        <time>2013-11-05T09:27:57Z</time>
      </trkpt>
      <trkpt lat="47.7829" lon="6.85975">
        <ele>1055.1</ele>
        <time>2013-11-05T09:28:08Z</time>
      </trkpt>
      <trkpt lat="47.78273" lon="6.85997">
        <ele>1055.4</ele>
        <time>2013-11-05T09:28:19Z</time>
      </trkpt>
      <trkpt lat="47.78258" lon="6.86016">
        <ele>1054.4</ele>
        <time>2013-11-05T09:28:28Z</time>
      </trkpt>
      <trkpt lat="47.78242" lon="6.86038">
        <ele>1053</ele>
        <time>2013-11-05T09:28:37Z</time>
      </trkpt>
      <trkpt lat="47.78231" lon="6.86065">
        <ele>1052.3</ele>
        <time>2013-11-05T09:28:45Z</time>
      </trkpt>
      <trkpt lat="47.78219" lon="6.86091">
        <ele>1051.8</ele>
        <time>2013-11-05T09:28:54Z</time>
      </trkpt>
      <trkpt lat="47.78206" lon="6.86117">
        <ele>1050.8</ele>
        <time>2013-11-05T09:29:11Z</time>
      </trkpt>
      <trkpt lat="47.78188" lon="6.86137">
        <ele>1048.8</ele>
        <time>2013-11-05T09:29:26Z</time>
      </trkpt>
      <trkpt lat="47.78169" lon="6.86155">
        <ele>1048.3</ele>
        <time>2013-11-05T09:29:48Z</time>
      </trkpt>
      <trkpt lat="47.78148" lon="6.86149">
        <ele>1043.3</ele>
        <time>2013-11-05T09:30:08Z</time>
      </trkpt>
      <trkpt lat="47.78127" lon="6.86147">
        <ele>1039</ele>
        <time>2013-11-05T09:30:22Z</time>
      </trkpt>
      <trkpt lat="47.78106" lon="6.86139">
        <ele>1037.9</ele>
        <time>2013-11-05T09:30:43Z</time>
      </trkpt>
      <trkpt lat="47.78085" lon="6.86133">
        <ele>1034.9</ele>
        <time>2013-11-05T09:30:55Z</time>
      </trkpt>
      <trkpt lat="47.78065" lon="6.86121">
        <ele>1033</ele>
        <time>2013-11-05T09:31:05Z</time>
      </trkpt>
      <trkpt lat="47.78047" lon="6.86105">
        <ele>1030.5</ele>
        <time>2013-11-05T09:31:15Z</time>
      </trkpt>
      <trkpt lat="47.78027" lon="6.86091">
        <ele>1027.3</ele>
        <time>2013-11-05T09:31:28Z</time>
      </trkpt>
      <trkpt lat="47.78007" lon="6.8608">
        <ele>1025.1</ele>
        <time>2013-11-05T09:31:39Z</time>
      </trkpt>
      <trkpt lat="47.77986" lon="6.86074">
        <ele>1022.7</ele>
        <time>2013-11-05T09:31:47Z</time>
      </trkpt>
      <trkpt lat="47.77965" lon="6.86069">
        <ele>1018.4</ele>
        <time>2013-11-05T09:31:58Z</time>
      </trkpt>
      <trkpt lat="47.77946" lon="6.86053">
        <ele>1014.5</ele>
        <time>2013-11-05T09:32:09Z</time>
      </trkpt>
      <trkpt lat="47.77937" lon="6.86024">
        <ele>999.5</ele>
        <time>2013-11-05T09:34:15Z</time>
      </trkpt>
      <trkpt lat="47.77936" lon="6.85991">
        <ele>996.7</ele>
        <time>2013-11-05T09:34:22Z</time>
      </trkpt>
      <trkpt lat="47.77934" lon="6.85961">
        <ele>993.2</ele>
        <time>2013-11-05T09:34:30Z</time>
      </trkpt>
      <trkpt lat="47.77925" lon="6.85932">
        <ele>989.2</ele>
        <time>2013-11-05T09:34:41Z</time>
      </trkpt>
      <trkpt lat="47.77923" lon="6.85901">
        <ele>983.4</ele>
        <time>2013-11-05T09:34:57Z</time>
      </trkpt>
      <trkpt lat="47.77934" lon="6.85873">
        <ele>976.5</ele>
        <time>2013-11-05T09:35:09Z</time>
      </trkpt>
      <trkpt lat="47.77955" lon="6.85864">
        <ele>973.7</ele>
        <time>2013-11-05T09:35:26Z</time>
      </trkpt>
      <trkpt lat="47.77968" lon="6.85838">
        <ele>966.2</ele>
        <time>2013-11-05T09:35:49Z</time>
      </trkpt>
      <trkpt lat="47.77988" lon="6.85843">
        <ele>964</ele>
        <time>2013-11-05T09:36:03Z</time>
      </trkpt>
      <trkpt lat="47.7801" lon="6.85849">
        <ele>962</ele>
        <time>2013-11-05T09:36:16Z</time>
      </trkpt>
      <trkpt lat="47.78033" lon="6.85846">
        <ele>959.7</ele>
        <time>2013-11-05T09:36:39Z</time>
      </trkpt>
      <trkpt lat="47.7803" lon="6.85816">
        <ele>950.2</ele>
        <time>2013-11-05T09:37:46Z</time>
      </trkpt>
      <trkpt lat="47.78031" lon="6.85784">
        <ele>946</ele>
        <time>2013-11-05T09:37:55Z</time>
      </trkpt>
      <trkpt lat="47.78025" lon="6.85753">
        <ele>943</ele>
        <time>2013-11-05T09:38:17Z</time>
      </trkpt>
      <trkpt lat="47.7801" lon="6.85729">
        <ele>944</ele>
        <time>2013-11-05T09:38:37Z</time>
      </trkpt>
      <trkpt lat="47.78005" lon="6.85697">
        <ele>942.7</ele>
        <time>2013-11-05T09:38:56Z</time>
      </trkpt>
      <trkpt lat="47.78015" lon="6.85668">
        <ele>938</ele>
        <time>2013-11-05T09:39:28Z</time>
      </trkpt>
      <trkpt lat="47.78011" lon="6.85635">
        <ele>932.7</ele>
        <time>2013-11-05T09:39:56Z</time>
      </trkpt>
      <trkpt lat="47.78008" lon="6.85605">
        <ele>929.2</ele>
        <time>2013-11-05T09:40:06Z</time>
      </trkpt>
      <trkpt lat="47.78002" lon="6.85573">
        <ele>925.7</ele>
        <time>2013-11-05T09:40:16Z</time>
      </trkpt>
      <trkpt lat="47.77998" lon="6.85541">
        <ele>920.5</ele>
        <time>2013-11-05T09:40:35Z</time>
      </trkpt>
      <trkpt lat="47.78" lon="6.85508">
        <ele>910.2</ele>
        <time>2013-11-05T09:41:17Z</time>
      </trkpt>
      <trkpt lat="47.77993" lon="6.85479">
        <ele>907.7</ele>
        <time>2013-11-05T09:41:28Z</time>
      </trkpt>
      <trkpt lat="47.77982" lon="6.8545">
        <ele>898.5</ele>
        <time>2013-11-05T09:41:53Z</time>
      </trkpt>
      <trkpt lat="47.77971" lon="6.85421">
        <ele>892.9</ele>
        <time>2013-11-05T09:42:50Z</time>
      </trkpt>
      <trkpt lat="47.77957" lon="6.85396">
        <ele>891</ele>
        <time>2013-11-05T09:43:21Z</time>
      </trkpt>
      <trkpt lat="47.77952" lon="6.85364">
        <ele>889.4</ele>
        <time>2013-11-05T09:43:36Z</time>
      </trkpt>
      <trkpt lat="47.77945" lon="6.85333">
        <ele>884.2</ele>
        <time>2013-11-05T09:43:48Z</time>
      </trkpt>
      <trkpt lat="47.77938" lon="6.85302">
        <ele>881.7</ele>
        <time>2013-11-05T09:43:59Z</time>
      </trkpt>
      <trkpt lat="47.77929" lon="6.85273">
        <ele>874.2</ele>
        <time>2013-11-05T09:44:18Z</time>
      </trkpt>
      <trkpt lat="47.77932" lon="6.85241">
        <ele>864.2</ele>
        <time>2013-11-05T09:44:35Z</time>
      </trkpt>
      <trkpt lat="47.77938" lon="6.85211">
        <ele>849.2</ele>
        <time>2013-11-05T09:44:56Z</time>
      </trkpt>
      <trkpt lat="47.77932" lon="6.8518">
        <ele>840</ele>
        <time>2013-11-05T09:45:05Z</time>
      </trkpt>
      <trkpt lat="47.7792" lon="6.85154">
        <ele>831.2</ele>
        <time>2013-11-05T09:45:13Z</time>
      </trkpt>
      <trkpt lat="47.77916" lon="6.85121">
        <ele>815.7</ele>
        <time>2013-11-05T09:45:28Z</time>
      </trkpt>
      <trkpt lat="47.77916" lon="6.85089">
        <ele>799.5</ele>
        <time>2013-11-05T09:45:48Z</time>
      </trkpt>
      <trkpt lat="47.77921" lon="6.85058">
        <ele>789</ele>
        <time>2013-11-05T09:46:08Z</time>
      </trkpt>
      <trkpt lat="47.77936" lon="6.85034">
        <ele>786.2</ele>
        <time>2013-11-05T09:46:24Z</time>
      </trkpt>
      <trkpt lat="47.77937" lon="6.85001">
        <ele>786.2</ele>
        <time>2013-11-05T09:46:41Z</time>
      </trkpt>
      <trkpt lat="47.77949" lon="6.84974">
        <ele>784</ele>
        <time>2013-11-05T09:46:58Z</time>
      </trkpt>
      <trkpt lat="47.77955" lon="6.84942">
        <ele>779.2</ele>
        <time>2013-11-05T09:47:20Z</time>
      </trkpt>
      <trkpt lat="47.77956" lon="6.8491">
        <ele>777.2</ele>
        <time>2013-11-05T09:47:42Z</time>
      </trkpt>
      <trkpt lat="47.7795" lon="6.84882">
        <ele>776.2</ele>
        <time>2013-11-05T09:47:50Z</time>
      </trkpt>
      <trkpt lat="47.77941" lon="6.84852">
        <ele>774.7</ele>
        <time>2013-11-05T09:48:01Z</time>
      </trkpt>
      <trkpt lat="47.77941" lon="6.84818">
        <ele>768.2</ele>
        <time>2013-11-05T09:48:31Z</time>
      </trkpt>
      <trkpt lat="47.77932" lon="6.84789">
        <ele>765.9</ele>
        <time>2013-11-05T09:48:49Z</time>
      </trkpt>
      <trkpt lat="47.7792" lon="6.84765">
        <ele>765.2</ele>
        <time>2013-11-05T09:48:54Z</time>
      </trkpt>
      <trkpt lat="47.77911" lon="6.84737">
        <ele>761.4</ele>
        <time>2013-11-05T09:49:06Z</time>
      </trkpt>
      <trkpt lat="47.7791" lon="6.84707">
        <ele>756.4</ele>
        <time>2013-11-05T09:49:17Z</time>
      </trkpt>
      <trkpt lat="47.77908" lon="6.84677">
        <ele>752</ele>
        <time>2013-11-05T09:49:25Z</time>
      </trkpt>
      <trkpt lat="47.77902" lon="6.84646">
        <ele>745.7</ele>
        <time>2013-11-05T09:49:37Z</time>
      </trkpt>
      <trkpt lat="47.77901" lon="6.84614">
        <ele>739</ele>
        <time>2013-11-05T09:49:56Z</time>
      </trkpt>
      <trkpt lat="47.77901" lon="6.84581">
        <ele>737.2</ele>
        <time>2013-11-05T09:50:14Z</time>
      </trkpt>
      <trkpt lat="47.77914" lon="6.84555">
        <ele>735.2</ele>
        <time>2013-11-05T09:50:47Z</time>
      </trkpt>
      <trkpt lat="47.77922" lon="6.84527">
        <ele>733.9</ele>
        <time>2013-11-05T09:51:02Z</time>
      </trkpt>
      <trkpt lat="47.77914" lon="6.84496">
        <ele>733.4</ele>
        <time>2013-11-05T09:51:14Z</time>
      </trkpt>
      <trkpt lat="47.77901" lon="6.84471">
        <ele>733.2</ele>
        <time>2013-11-05T09:51:28Z</time>
      </trkpt>
      <trkpt lat="47.77892" lon="6.8444">
        <ele>733.2</ele>
        <time>2013-11-05T09:51:40Z</time>
      </trkpt>
      <trkpt lat="47.77878" lon="6.84415">
        <ele>733</ele>
        <time>2013-11-05T09:52:08Z</time>
      </trkpt>
      <trkpt lat="47.77864" lon="6.8439">
        <ele>732.5</ele>
        <time>2013-11-05T09:52:32Z</time>
      </trkpt>
      <trkpt lat="47.77854" lon="6.84365">
        <ele>732.2</ele>
        <time>2013-11-05T09:52:42Z</time>
      </trkpt>
      <trkpt lat="47.77846" lon="6.84335">
        <ele>731.7</ele>
        <time>2013-11-05T09:52:49Z</time>
      </trkpt>
      <trkpt lat="47.77837" lon="6.84305">
        <ele>731.2</ele>
        <time>2013-11-05T09:53:03Z</time>
      </trkpt>
      <trkpt lat="47.77831" lon="6.84274">
        <ele>730.4</ele>
        <time>2013-11-05T09:53:15Z</time>
      </trkpt>
      <trkpt lat="47.77827" lon="6.84242">
        <ele>730.2</ele>
        <time>2013-11-05T09:53:39Z</time>
      </trkpt>
      <trkpt lat="47.77821" lon="6.84211">
        <ele>730</ele>
        <time>2013-11-05T09:53:49Z</time>
      </trkpt>
      <trkpt lat="47.77815" lon="6.84181">
        <ele>729.9</ele>
        <time>2013-11-05T09:54:04Z</time>
      </trkpt>
      <trkpt lat="47.77806" lon="6.8415">
        <ele>729.7</ele>
        <time>2013-11-05T09:54:14Z</time>
      </trkpt>
      <trkpt lat="47.77789" lon="6.84128">
        <ele>729.2</ele>
        <time>2013-11-05T09:54:40Z</time>
      </trkpt>
      <trkpt lat="47.77775" lon="6.84101">
        <ele>727</ele>
        <time>2013-11-05T09:55:03Z</time>
      </trkpt>
      <trkpt lat="47.77757" lon="6.84084">
        <ele>726.5</ele>
        <time>2013-11-05T09:55:15Z</time>
      </trkpt>
      <trkpt lat="47.77736" lon="6.84086">
        <ele>725.4</ele>
        <time>2013-11-05T09:55:29Z</time>
      </trkpt>
      <trkpt lat="47.77734" lon="6.84054">
        <ele>718.7</ele>
        <time>2013-11-05T09:56:19Z</time>
      </trkpt>
      <trkpt lat="47.77734" lon="6.84025">
        <ele>715.9</ele>
        <time>2013-11-05T09:56:26Z</time>
      </trkpt>
      <trkpt lat="47.77729" lon="6.83994">
        <ele>713.2</ele>
        <time>2013-11-05T09:56:33Z</time>
      </trkpt>
      <trkpt lat="47.7772" lon="6.83964">
        <ele>707.9</ele>
        <time>2013-11-05T09:57:00Z</time>
      </trkpt>
      <trkpt lat="47.77717" lon="6.83932">
        <ele>706.4</ele>
        <time>2013-11-05T09:57:14Z</time>
      </trkpt>
      <trkpt lat="47.77708" lon="6.83902">
        <ele>704</ele>
        <time>2013-11-05T09:57:34Z</time>
      </trkpt>
      <trkpt lat="47.77703" lon="6.83871">
        <ele>703.5</ele>
        <time>2013-11-05T09:57:50Z</time>
      </trkpt>
      <trkpt lat="47.77695" lon="6.83841">
        <ele>701.5</ele>
        <time>2013-11-05T09:58:01Z</time>
      </trkpt>
      <trkpt lat="47.77685" lon="6.83813">
        <ele>698.7</ele>
        <time>2013-11-05T09:58:12Z</time>
      </trkpt>
      <trkpt lat="47.77679" lon="6.83784">
        <ele>692.9</ele>
        <time>2013-11-05T09:58:21Z</time>
      </trkpt>
      <trkpt lat="47.77673" lon="6.83752">
        <ele>687.9</ele>
        <time>2013-11-05T09:58:28Z</time>
      </trkpt>
      <trkpt lat="47.77671" lon="6.83719">
        <ele>680.9</ele>
        <time>2013-11-05T09:58:38Z</time>
      </trkpt>
      <trkpt lat="47.77674" lon="6.83689">
        <ele>674.9</ele>
        <time>2013-11-05T09:58:49Z</time>
      </trkpt>
      <trkpt lat="47.77675" lon="6.83657">
        <ele>670.2</ele>
        <time>2013-11-05T09:58:58Z</time>
      </trkpt>
      <trkpt lat="47.77669" lon="6.83626">
        <ele>666.2</ele>
        <time>2013-11-05T09:59:05Z</time>
      </trkpt>
      <trkpt lat="47.77663" lon="6.83594">
        <ele>662.9</ele>
        <time>2013-11-05T09:59:13Z</time>
      </trkpt>
      <trkpt lat="47.77668" lon="6.83563">
        <ele>655.2</ele>
        <time>2013-11-05T09:59:28Z</time>
      </trkpt>
      <trkpt lat="47.7767" lon="6.8353">
        <ele>639</ele>
        <time>2013-11-05T09:59:53Z</time>
      </trkpt>
      <trkpt lat="47.77691" lon="6.83522">
        <ele>624</ele>
        <time>2013-11-05T10:00:11Z</time>
      </trkpt>
      <trkpt lat="47.77712" lon="6.83532">
        <ele>614.2</ele>
        <time>2013-11-05T10:00:32Z</time>
      </trkpt>
      <trkpt lat="47.77725" lon="6.83532">
        <ele>603.5</ele>
        <time>2013-11-05T10:01:43Z</time>
      </trkpt>
      <trkpt lat="47.77725" lon="6.83532">
        <ele>603.5</ele>
        <time>2013-11-05T10:01:43Z</time>
      </trkpt>
    </trkseg>
  </trk>
</gpx>